Time;durP1;ratioP1;P1;durP2;ratioP2;P2;SDS_P1;SDS_P2;PMS_P1;PMS_P2;Temp;Humidity;BMP_temperature;BMP_pressure;BME280_temperature;BME280_humidity;BME280_pressure;Samples;Min_cycle;Max_cycle;Signal;HPM_P1;HPM_P2
2021/12/06 00:00:44;;;;;;;43.70;19.23;;;;;;;-1.09;90.51;97640.19;2567178;28;20061;-73
2021/12/06 00:02:04;;;;;;;41.92;18.13;;;;;;;-1.09;90.26;97635.03;2567301;28;20066;-72
2021/12/06 00:03:28;;;;;;;38.85;18.45;;;;;;;-1.08;90.23;97631.63;2567434;28;20046;-73
2021/12/06 00:04:44;;;;;;;50.78;21.15;;;;;;;-1.10;90.37;97638.47;2567345;28;20069;-73
2021/12/06 00:06:00;;;;;;;39.30;19.58;;;;;;;-1.10;90.08;97633.31;2567280;28;20376;-73
2021/12/06 00:07:18;;;;;;;46.90;22.38;;;;;;;-1.07;90.26;97638.47;2567594;28;20054;-75
2021/12/06 00:08:34;;;;;;;53.17;22.85;;;;;;;-1.07;90.22;97635.03;2566939;28;20081;-73
2021/12/06 00:09:50;;;;;;;42.28;21.17;;;;;;;-1.07;90.23;97637.59;2566836;28;20078;-73
2021/12/06 00:11:09;;;;;;;43.47;21.05;;;;;;;-1.08;90.21;97638.44;2566969;28;20047;-73
2021/12/06 00:12:25;;;;;;;47.00;21.05;;;;;;;-1.10;90.23;97642.72;2567212;28;20800;-73
2021/12/06 00:13:47;;;;;;;42.95;20.63;;;;;;;-1.13;90.46;97643.56;2567177;28;20073;-75
2021/12/06 00:15:05;;;;;;;49.10;21.30;;;;;;;-1.15;90.41;97638.44;2567170;28;20054;-73
2021/12/06 00:16:23;;;;;;;42.90;20.85;;;;;;;-1.16;90.59;97640.97;2567536;28;20097;-74
2021/12/06 00:17:38;;;;;;;49.95;20.58;;;;;;;-1.19;90.47;97653.81;2567242;28;20129;-73
2021/12/06 00:18:54;;;;;;;44.53;19.77;;;;;;;-1.20;90.73;97654.66;2566980;28;20101;-73
2021/12/06 00:20:13;;;;;;;43.05;19.45;;;;;;;-1.22;90.68;97648.66;2556456;29;20452;-72
2021/12/06 00:21:29;;;;;;;45.42;20.63;;;;;;;-1.22;90.77;97653.81;2561281;28;20046;-73
2021/12/06 00:22:45;;;;;;;40.70;18.40;;;;;;;-1.24;91.05;97650.38;2566969;28;20148;-73
2021/12/06 00:24:01;;;;;;;36.20;17.30;;;;;;;-1.25;90.63;97644.34;2567146;28;20107;-73
2021/12/06 00:25:17;;;;;;;43.05;18.88;;;;;;;-1.24;90.85;97645.22;2567001;28;20082;-73
2021/12/06 00:26:33;;;;;;;38.85;17.65;;;;;;;-1.23;90.50;97637.50;2567416;28;20421;-73
2021/12/06 00:27:49;;;;;;;34.60;17.17;;;;;;;-1.21;90.65;97642.66;2567222;28;20101;-72
2021/12/06 00:29:05;;;;;;;37.05;17.25;;;;;;;-1.19;90.60;97646.09;2566742;28;20047;-75
2021/12/06 00:30:21;;;;;;;35.70;17.20;;;;;;;-1.20;90.42;97639.25;2566995;28;20494;-72
2021/12/06 00:31:37;;;;;;;38.40;17.45;;;;;;;-1.21;90.44;97634.97;2567078;28;20046;-73
2021/12/06 00:32:53;;;;;;;36.67;16.40;;;;;;;-1.25;90.40;97636.66;2567238;28;20082;-74
2021/12/06 00:34:13;;;;;;;35.35;16.77;;;;;;;-1.26;90.43;97636.63;2566980;28;20046;-74
2021/12/06 00:35:29;;;;;;;34.80;17.35;;;;;;;-1.29;90.23;97627.22;2567010;28;20077;-74
2021/12/06 00:37:05;;;;;;;38.53;16.90;;;;;;;-1.29;90.33;97633.19;2567194;28;20158;-72
2021/12/06 00:38:21;;;;;;;34.65;16.02;;;;;;;-1.31;90.55;97631.50;2566864;28;20464;-72
2021/12/06 00:39:36;;;;;;;40.47;16.63;;;;;;;-1.33;90.54;97634.03;2566802;28;20051;-72
2021/12/06 00:40:52;;;;;;;38.50;16.58;;;;;;;-1.32;90.51;97635.75;2566554;28;20055;-72
2021/12/06 00:42:08;;;;;;;37.53;15.05;;;;;;;-1.33;90.75;97628.91;2567238;28;20050;-72
2021/12/06 00:43:24;;;;;;;33.97;16.73;;;;;;;-1.32;90.50;97627.22;2567254;28;20478;-74
2021/12/06 00:44:40;;;;;;;36.15;16.40;;;;;;;-1.31;90.39;97632.34;2567103;28;20058;-73
2021/12/06 00:45:55;;;;;;;38.65;16.52;;;;;;;-1.31;90.23;97632.34;2567191;28;20089;-75
2021/12/06 00:47:11;;;;;;;30.15;15.65;;;;;;;-1.26;90.24;97628.91;2566928;28;20136;-73
2021/12/06 00:48:27;;;;;;;32.08;15.43;;;;;;;-1.16;90.07;97633.28;2566876;28;20053;-73
2021/12/06 00:49:45;;;;;;;36.28;15.38;;;;;;;-1.14;90.05;97627.31;2566854;28;20449;-73
2021/12/06 00:51:01;;;;;;;34.53;15.00;;;;;;;-1.12;90.03;97631.59;2566902;28;20081;-74
2021/12/06 00:52:17;;;;;;;33.00;14.77;;;;;;;-1.11;89.93;97629.03;2567053;28;20105;-73
2021/12/06 00:53:33;;;;;;;32.92;14.50;;;;;;;-1.13;89.84;97633.28;2566966;28;20098;-73
2021/12/06 00:54:49;;;;;;;30.48;14.35;;;;;;;-1.10;89.97;97640.16;2567066;28;20059;-74
2021/12/06 00:56:05;;;;;;;31.88;15.05;;;;;;;-1.03;89.83;97634.22;2567180;28;20062;-72
2021/12/06 00:57:21;;;;;;;32.17;13.63;;;;;;;-1.07;89.66;97638.47;2567238;28;20054;-73
2021/12/06 00:58:37;;;;;;;27.25;13.73;;;;;;;-1.09;89.59;97640.19;2567225;28;20121;-73
2021/12/06 00:59:53;;;;;;;30.67;13.85;;;;;;;-1.07;89.71;97638.47;2566638;28;20051;-72
2021/12/06 01:01:09;;;;;;;32.50;14.07;;;;;;;-1.09;89.83;97639.31;2567005;28;20192;-71
2021/12/06 01:02:25;;;;;;;32.60;14.50;;;;;;;-1.14;89.91;97642.72;2567002;28;20489;-72
2021/12/06 01:03:42;;;;;;;29.98;14.13;;;;;;;-1.17;90.00;97645.28;2566991;28;20058;-73
2021/12/06 01:04:58;;;;;;;27.83;13.60;;;;;;;-1.19;89.96;97648.66;2566911;28;20051;-74
2021/12/06 01:06:14;;;;;;;32.17;14.35;;;;;;;-1.20;90.13;97646.97;2568636;28;20513;-72
2021/12/06 01:07:29;;;;;;;30.88;14.45;;;;;;;-1.21;90.09;97650.38;2558219;29;20066;-72
2021/12/06 01:08:45;;;;;;;32.75;14.32;;;;;;;-1.22;90.11;97651.22;2562194;28;20391;-72
2021/12/06 01:10:01;;;;;;;33.40;14.27;;;;;;;-1.25;90.28;97653.78;2568356;28;20050;-72
2021/12/06 01:11:16;;;;;;;28.85;13.32;;;;;;;-1.29;90.27;97653.75;2568619;28;20160;-73
2021/12/06 01:12:32;;;;;;;28.67;14.38;;;;;;;-1.33;90.37;97649.44;2568732;28;20560;-72
2021/12/06 01:13:48;;;;;;;33.90;15.25;;;;;;;-1.36;90.25;97656.25;2568602;28;20434;-72
2021/12/06 01:15:05;;;;;;;31.95;15.98;;;;;;;-1.39;90.43;97657.13;2568412;28;20066;-72
2021/12/06 01:16:21;;;;;;;34.53;15.80;;;;;;;-1.39;90.47;97661.38;2568730;28;20104;-73
2021/12/06 01:17:36;;;;;;;35.95;15.50;;;;;;;-1.37;90.18;97657.09;2568739;28;20062;-72
2021/12/06 01:18:52;;;;;;;38.35;16.33;;;;;;;-1.36;90.21;97656.25;2568787;28;20138;-72
2021/12/06 01:20:11;;;;;;;33.53;15.70;;;;;;;-1.36;89.98;97657.13;2568460;28;20062;-72
2021/12/06 01:21:40;;;;;;;34.67;15.48;;;;;;;-1.36;90.04;97657.13;2568542;28;20043;-74
2021/12/06 01:23:07;;;;;;;33.20;15.30;;;;;;;-1.33;90.20;97659.72;2568784;28;20411;-72
2021/12/06 01:24:29;;;;;;;31.30;14.75;;;;;;;-1.32;90.15;97664.00;2568817;28;20054;-72
2021/12/06 01:25:56;;;;;;;34.08;15.50;;;;;;;-1.33;90.15;97669.97;2568863;28;20051;-72
2021/12/06 01:30:33;;;;;;;28.35;13.00;;;;;;;-1.33;90.28;97672.56;2568560;28;20140;-74
2021/12/06 01:31:57;;;;;;;27.75;12.98;;;;;;;-1.29;90.20;97673.44;2568623;28;20230;-73
2021/12/06 01:39:20;;;;;;;30.00;13.32;;;;;;;-0.97;89.75;97680.47;2568353;28;20138;-72
2021/12/06 01:40:35;;;;;;;29.30;13.30;;;;;;;-0.76;89.25;97682.31;2568279;28;20089;-72
2021/12/06 01:42:01;;;;;;;27.58;13.77;;;;;;;-0.76;88.70;97686.59;2568683;28;20062;-74
2021/12/06 01:43:16;;;;;;;33.45;14.30;;;;;;;-0.79;88.77;97682.31;2568648;28;20061;-72
2021/12/06 01:44:39;;;;;;;31.10;14.68;;;;;;;-0.80;88.50;97683.16;2568314;28;20086;-72
2021/12/06 01:45:55;;;;;;;31.25;13.43;;;;;;;-0.84;88.67;97683.97;2568580;28;20050;-72
2021/12/06 01:47:18;;;;;;;28.92;14.15;;;;;;;-0.82;88.76;97689.13;2568509;28;20058;-72
2021/12/06 01:48:34;;;;;;;29.45;13.43;;;;;;;-0.91;88.68;97687.38;2568184;28;20510;-73
2021/12/06 01:49:55;;;;;;;30.60;13.60;;;;;;;-0.89;88.79;97693.38;2568178;28;20073;-73
2021/12/06 01:51:10;;;;;;;28.92;13.98;;;;;;;-0.97;88.96;97692.50;2568210;28;20046;-73
2021/12/06 01:52:30;;;;;;;31.38;14.05;;;;;;;-1.04;89.07;97695.00;2568080;28;20055;-74
2021/12/06 01:53:45;;;;;;;28.80;13.00;;;;;;;-1.09;89.39;97696.69;2568283;28;20512;-74
2021/12/06 01:55:02;;;;;;;29.88;13.35;;;;;;;-1.11;89.41;97692.38;2568171;28;20407;-74
2021/12/06 01:56:18;;;;;;;28.48;13.80;;;;;;;-1.12;89.45;97695.81;2568347;28;20120;-72
2021/12/06 01:57:34;;;;;;;30.20;14.65;;;;;;;-1.15;89.65;97700.09;2568212;28;20506;-74
2021/12/06 01:58:49;;;;;;;29.10;14.15;;;;;;;-1.16;89.56;97703.50;2568075;28;20051;-73
2021/12/06 02:00:13;;;;;;;28.70;14.02;;;;;;;-1.15;89.74;97694.06;2568117;28;20130;-75
2021/12/06 02:01:29;;;;;;;28.00;12.88;;;;;;;-1.13;89.71;97700.06;2568389;28;20465;-71
2021/12/06 02:02:45;;;;;;;30.02;13.93;;;;;;;-1.13;89.59;97700.06;2568192;28;20078;-74
2021/12/06 02:04:02;;;;;;;35.08;14.38;;;;;;;-1.11;89.65;97703.53;2568401;28;20445;-74
2021/12/06 02:05:18;;;;;;;31.10;14.35;;;;;;;-1.12;89.73;97701.78;2567742;28;20054;-72
2021/12/06 02:06:35;;;;;;;26.73;12.88;;;;;;;-1.08;89.78;97697.53;2568239;28;20544;-73
2021/12/06 02:07:52;;;;;;;29.52;13.38;;;;;;;-1.10;89.81;97700.13;2568137;28;20414;-74
2021/12/06 02:09:12;;;;;;;27.52;13.60;;;;;;;-0.96;89.86;97696.78;2567935;28;20050;-73
2021/12/06 02:10:28;;;;;;;32.85;14.50;;;;;;;-0.91;89.47;97695.97;2568186;28;20050;-74
2021/12/06 02:11:45;;;;;;;30.77;13.93;;;;;;;-0.88;89.32;97700.22;2567989;28;20133;-75
2021/12/06 02:13:01;;;;;;;30.52;13.93;;;;;;;-0.89;89.34;97695.94;2568203;28;20069;-72
2021/12/06 02:15:46;;;;;;;33.10;15.00;;;;;;;-0.85;89.29;97700.25;2568107;28;20515;-72
2021/12/06 02:17:12;;;;;;;31.20;13.40;;;;;;;-0.89;88.99;97701.09;2566925;28;20099;-74
2021/12/06 02:20:00;;;;;;;28.60;13.43;;;;;;;-0.76;88.95;97699.47;2568005;28;20421;-72
2021/12/06 02:21:27;;;;;;;26.90;12.57;;;;;;;-0.85;88.80;97697.66;2568069;28;20053;-71
2021/12/06 02:22:45;;;;;;;27.95;12.70;;;;;;;-0.88;88.83;97695.97;2568081;28;20047;-74
2021/12/06 02:24:06;;;;;;;29.95;12.80;;;;;;;-0.83;88.77;97697.69;2568115;28;20097;-74
2021/12/06 02:25:22;;;;;;;35.58;14.85;;;;;;;-0.91;88.84;97705.34;2567745;28;20051;-73
2021/12/06 02:26:41;;;;;;;28.50;13.93;;;;;;;-0.90;89.03;97699.38;2567936;28;20517;-73
2021/12/06 02:27:56;;;;;;;28.95;13.20;;;;;;;-0.93;89.10;97697.63;2568043;28;20054;-74
2021/12/06 02:29:12;;;;;;;28.33;14.25;;;;;;;-0.97;89.36;97701.03;2568025;28;20149;-75
2021/12/06 02:30:28;;;;;;;29.60;13.35;;;;;;;-0.91;89.25;97698.53;2567978;28;20054;-74
2021/12/06 02:31:44;;;;;;;28.48;13.27;;;;;;;-0.89;89.26;97699.38;2567908;28;21089;-74
2021/12/06 02:33:00;;;;;;;29.85;13.60;;;;;;;-0.87;89.15;97697.69;2568012;28;20094;-74
2021/12/06 02:34:16;;;;;;;32.70;13.05;;;;;;;-0.86;89.19;97704.53;2567800;28;20050;-73
2021/12/06 02:35:32;;;;;;;28.38;13.15;;;;;;;-0.84;88.97;97706.25;2567856;28;20407;-73
2021/12/06 02:36:48;;;;;;;33.63;13.75;;;;;;;-0.74;88.79;97703.72;2568155;28;20130;-73
2021/12/06 02:38:07;;;;;;;31.10;13.63;;;;;;;-0.71;88.53;97703.75;2567830;28;20062;-74
2021/12/06 02:39:24;;;;;;;28.27;13.88;;;;;;;-0.71;88.27;97703.75;2567916;28;20055;-72
2021/12/06 02:40:41;;;;;;;27.15;13.50;;;;;;;-0.74;88.11;97706.31;2567488;28;20077;-72
2021/12/06 02:41:58;;;;;;;25.95;13.50;;;;;;;-0.75;88.29;97712.31;2568111;28;20049;-77
2021/12/06 02:43:14;;;;;;;27.48;13.50;;;;;;;-0.76;88.19;97708.00;2567964;28;20089;-74
2021/12/06 02:44:30;;;;;;;29.90;13.52;;;;;;;-0.83;88.42;97713.13;2568232;28;20417;-72
2021/12/06 02:45:46;;;;;;;27.95;12.82;;;;;;;-0.83;88.54;97707.97;2557013;29;20047;-73
2021/12/06 02:47:02;;;;;;;33.42;14.98;;;;;;;-0.90;88.59;97714.78;2561396;28;20055;-73
2021/12/06 02:48:17;;;;;;;29.00;13.60;;;;;;;-0.91;88.91;97711.38;2567812;28;20050;-73
2021/12/06 02:49:33;;;;;;;28.73;13.43;;;;;;;-0.94;89.04;97713.91;2567453;28;20526;-73
2021/12/06 02:50:53;;;;;;;28.42;12.13;;;;;;;-0.91;89.07;97715.63;2567820;28;20053;-73
2021/12/06 02:52:11;;;;;;;26.83;13.32;;;;;;;-0.91;89.13;97718.22;2567998;28;20054;-73
2021/12/06 02:53:30;;;;;;;28.80;13.30;;;;;;;-0.85;89.17;97720.81;2567398;28;20050;-73
2021/12/06 02:54:55;;;;;;;25.08;12.75;;;;;;;-0.82;88.63;97713.13;2567659;28;20066;-73
2021/12/06 02:56:29;;;;;;;23.05;12.63;;;;;;;-0.80;88.75;97718.25;2567979;28;20129;-72
2021/12/06 02:57:46;;;;;;;27.67;13.57;;;;;;;-0.78;88.72;97716.56;2567681;28;20072;-73
2021/12/06 02:59:05;;;;;;;25.83;12.85;;;;;;;-0.74;88.57;97715.75;2567608;28;20533;-73
2021/12/06 03:00:22;;;;;;;27.77;13.40;;;;;;;-0.80;88.35;97714.00;2567153;28;20054;-73
2021/12/06 03:01:42;;;;;;;27.08;12.77;;;;;;;-0.79;88.37;97715.72;2567786;28;20632;-73
2021/12/06 03:02:58;;;;;;;25.05;12.63;;;;;;;-0.69;88.30;97713.22;2567445;28;20050;-73
2021/12/06 03:04:13;;;;;;;28.80;13.05;;;;;;;-0.64;88.06;97711.50;2567806;28;20559;-73
2021/12/06 03:05:29;;;;;;;29.55;13.55;;;;;;;-0.64;87.78;97706.38;2567519;28;20058;-72
2021/12/06 03:06:47;;;;;;;26.65;12.10;;;;;;;-0.58;87.55;97703.81;2567727;28;20109;-73
2021/12/06 03:08:04;;;;;;;29.30;13.15;;;;;;;-0.60;87.64;97697.81;2567461;28;20089;-72
2021/12/06 03:09:29;;;;;;;23.80;12.52;;;;;;;-0.64;87.69;97706.38;2567611;28;20193;-72
2021/12/06 03:10:45;;;;;;;29.75;13.75;;;;;;;-0.67;87.66;97704.63;2567522;28;20054;-72
2021/12/06 03:12:03;;;;;;;26.75;12.13;;;;;;;-0.69;87.75;97711.47;2567500;28;20567;-72
2021/12/06 03:13:19;;;;;;;26.23;12.63;;;;;;;-0.64;87.69;97704.63;2567400;28;20508;-73
2021/12/06 03:14:42;;;;;;;24.83;13.10;;;;;;;-0.65;87.58;97707.22;2567665;28;20069;-72
2021/12/06 03:15:58;;;;;;;22.63;11.13;;;;;;;-0.74;87.53;97706.31;2567723;28;20082;-73
2021/12/06 03:17:19;;;;;;;27.42;12.27;;;;;;;-0.78;87.81;97704.59;2567251;28;20043;-72
2021/12/06 03:18:35;;;;;;;28.77;12.43;;;;;;;-0.83;88.12;97702.84;2567657;28;20051;-74
2021/12/06 03:19:52;;;;;;;27.95;12.70;;;;;;;-0.86;88.38;97706.22;2567368;28;20089;-73
2021/12/06 03:21:07;;;;;;;26.23;12.80;;;;;;;-0.91;88.62;97700.22;2567271;28;20962;-73
2021/12/06 03:22:23;;;;;;;29.80;13.05;;;;;;;-0.96;88.51;97710.47;2567748;28;20051;-72
2021/12/06 03:23:39;;;;;;;28.38;13.23;;;;;;;-0.99;88.75;97713.03;2567435;28;20061;-73
2021/12/06 03:24:54;;;;;;;23.23;12.13;;;;;;;-1.06;88.62;97709.56;2567569;28;20055;-73
2021/12/06 03:26:10;;;;;;;26.83;12.55;;;;;;;-1.10;88.68;97718.09;2567298;28;20422;-73
2021/12/06 03:27:26;;;;;;;28.65;12.93;;;;;;;-1.08;88.75;97707.81;2567579;28;20490;-73
2021/12/06 03:28:44;;;;;;;29.00;12.98;;;;;;;-1.09;88.84;97709.53;2567006;28;20426;-73
2021/12/06 03:29:59;;;;;;;25.20;12.90;;;;;;;-1.12;88.97;97717.19;2567158;28;20083;-73
2021/12/06 03:31:16;;;;;;;25.98;12.70;;;;;;;-1.18;89.24;97724.88;2567325;28;20073;-73
2021/12/06 03:32:32;;;;;;;26.17;12.73;;;;;;;-1.22;89.32;97724.00;2567076;28;20051;-73
2021/12/06 03:33:50;;;;;;;27.73;13.00;;;;;;;-1.24;89.62;97727.41;2567583;28;20062;-73
2021/12/06 03:35:07;;;;;;;29.38;13.70;;;;;;;-1.26;89.67;97718.81;2567091;28;20050;-73
2021/12/06 03:36:25;;;;;;;31.35;14.55;;;;;;;-1.28;89.90;97723.97;2567499;28;20078;-73
2021/12/06 03:37:41;;;;;;;27.45;13.10;;;;;;;-1.28;89.90;97718.81;2567413;28;20142;-73
2021/12/06 03:38:58;;;;;;;26.73;13.45;;;;;;;-1.28;89.96;97724.78;2567414;28;20047;-73
2021/12/06 03:40:14;;;;;;;31.25;13.32;;;;;;;-1.29;89.99;97725.66;2567006;28;20050;-73
2021/12/06 03:41:29;;;;;;;27.65;13.07;;;;;;;-1.27;89.75;97723.09;2567201;28;20063;-73
2021/12/06 03:42:45;;;;;;;31.13;13.80;;;;;;;-1.24;90.10;97724.84;2567429;28;20047;-73
2021/12/06 03:44:01;;;;;;;31.63;13.57;;;;;;;-1.22;90.00;97729.13;2567396;28;20058;-73
2021/12/06 03:45:17;;;;;;;26.58;13.00;;;;;;;-1.22;89.87;97730.84;2567275;28;20055;-73
2021/12/06 03:46:34;;;;;;;27.75;14.23;;;;;;;-1.22;89.86;97726.56;2567372;28;20413;-73
2021/12/06 03:47:50;;;;;;;29.92;13.48;;;;;;;-1.19;89.78;97731.75;2567173;28;20054;-73
2021/12/06 03:49:14;;;;;;;29.25;13.85;;;;;;;-1.17;89.89;97729.16;2567070;28;21005;-74
2021/12/06 03:50:29;;;;;;;25.02;12.30;;;;;;;-1.01;89.71;97725.00;2567063;28;20062;-74
2021/12/06 03:51:47;;;;;;;24.30;12.63;;;;;;;-0.98;89.50;97737.88;2567493;28;20047;-75
2021/12/06 03:53:02;;;;;;;29.98;13.35;;;;;;;-0.96;89.37;97730.19;2567226;28;20055;-72
2021/12/06 03:54:24;;;;;;;27.13;12.52;;;;;;;-0.95;89.18;97735.31;2567397;28;20089;-72
2021/12/06 03:55:39;;;;;;;27.17;13.00;;;;;;;-0.93;88.89;97730.19;2567345;28;20055;-72
2021/12/06 03:56:56;;;;;;;24.33;12.48;;;;;;;-0.95;88.93;97735.31;2567378;28;20057;-73
2021/12/06 03:58:12;;;;;;;29.55;12.93;;;;;;;-0.92;88.80;97734.47;2567243;28;20452;-72
2021/12/06 03:59:28;;;;;;;24.90;12.05;;;;;;;-0.91;88.79;97736.19;2567058;28;20101;-72
2021/12/06 04:00:43;;;;;;;26.65;11.52;;;;;;;-0.88;88.90;97737.09;2566832;28;20062;-73
2021/12/06 04:01:59;;;;;;;27.15;12.65;;;;;;;-0.87;88.81;97733.66;2566927;28;20106;-73
2021/12/06 04:03:17;;;;;;;23.67;12.57;;;;;;;-0.82;88.38;97736.25;2567453;28;20482;-72
2021/12/06 04:04:33;;;;;;;26.35;12.73;;;;;;;-0.84;88.53;97732.81;2567135;28;20061;-72
2021/12/06 04:05:49;;;;;;;30.48;14.27;;;;;;;-0.81;88.41;97731.97;2567267;28;20051;-72
2021/12/06 04:07:06;;;;;;;31.83;14.07;;;;;;;-0.84;88.30;97732.81;2567262;28;20113;-73
2021/12/06 04:08:22;;;;;;;26.40;12.95;;;;;;;-0.88;88.16;97731.94;2567538;28;20549;-72
2021/12/06 04:09:38;;;;;;;31.08;13.02;;;;;;;-0.90;88.32;97736.22;2566763;28;20050;-73
2021/12/06 04:10:55;;;;;;;30.38;13.10;;;;;;;-0.91;88.23;97737.06;2566908;28;20051;-72
2021/12/06 04:12:12;;;;;;;28.20;13.57;;;;;;;-0.90;88.18;97738.78;2567114;28;20054;-72
2021/12/06 04:13:27;;;;;;;27.83;13.77;;;;;;;-0.93;88.40;97737.91;2567292;28;20085;-72
2021/12/06 04:14:43;;;;;;;26.05;13.15;;;;;;;-1.04;88.50;97740.41;2566945;28;20042;-72
2021/12/06 04:16:00;;;;;;;28.33;12.52;;;;;;;-1.13;88.64;97743.75;2566347;28;20457;-72
2021/12/06 04:17:15;;;;;;;30.13;13.90;;;;;;;-1.18;89.10;97736.03;2567008;28;20660;-72
2021/12/06 04:18:31;;;;;;;27.75;13.65;;;;;;;-1.21;89.24;97748.81;2567153;28;20051;-72
2021/12/06 04:19:47;;;;;;;27.77;13.32;;;;;;;-1.24;89.54;97748.81;2567059;28;20414;-72
2021/12/06 04:21:04;;;;;;;30.08;13.70;;;;;;;-1.27;89.84;97751.34;2566913;28;20082;-72
2021/12/06 04:22:20;;;;;;;30.10;14.63;;;;;;;-1.30;89.99;97746.19;2566134;28;20062;-72
2021/12/06 04:23:36;;;;;;;25.75;13.23;;;;;;;-1.32;90.03;97756.44;2566948;28;20047;-72
2021/12/06 04:24:52;;;;;;;36.67;15.23;;;;;;;-1.35;90.00;97758.13;2566977;28;20051;-72
2021/12/06 04:26:08;;;;;;;30.63;14.95;;;;;;;-1.39;90.05;97754.69;2567047;28;20058;-72
2021/12/06 04:27:24;;;;;;;26.40;13.52;;;;;;;-1.41;90.12;97758.94;2567393;28;20129;-72
2021/12/06 04:28:47;;;;;;;31.33;13.93;;;;;;;-1.45;90.02;97758.06;2566869;28;20996;-72
2021/12/06 04:30:06;;;;;;;25.88;13.50;;;;;;;-1.47;90.31;97767.44;2566957;28;20506;-72
2021/12/06 04:31:21;;;;;;;29.15;13.10;;;;;;;-1.49;90.40;97766.56;2566970;28;20478;-72
2021/12/06 04:32:37;;;;;;;27.05;13.13;;;;;;;-1.50;90.50;97762.28;2567100;28;20061;-72
2021/12/06 04:33:54;;;;;;;25.85;13.38;;;;;;;-1.51;90.86;97773.41;2566902;28;20051;-73
2021/12/06 04:35:09;;;;;;;29.70;13.80;;;;;;;-1.51;90.61;97775.97;2567028;28;20485;-72
2021/12/06 04:36:26;;;;;;;34.85;14.48;;;;;;;-1.49;90.62;97776.00;2567269;28;20051;-72
2021/12/06 04:37:42;;;;;;;32.92;14.88;;;;;;;-1.48;90.69;97775.13;2566817;28;20193;-72
2021/12/06 04:38:57;;;;;;;32.58;14.77;;;;;;;-1.47;90.76;97770.00;2565743;28;20042;-72
2021/12/06 04:40:14;;;;;;;31.42;14.45;;;;;;;-1.46;90.75;97771.75;2566939;28;20162;-72
2021/12/06 04:41:29;;;;;;;30.70;13.50;;;;;;;-1.46;90.45;97773.44;2567470;28;20702;-72
2021/12/06 04:42:45;;;;;;;27.67;12.88;;;;;;;-1.44;90.46;97770.06;2569146;28;20047;-72
2021/12/06 04:44:01;;;;;;;28.88;14.10;;;;;;;-1.44;90.45;97772.63;2569036;28;20053;-72
2021/12/06 04:45:17;;;;;;;24.90;13.48;;;;;;;-1.44;90.41;97770.06;2568965;28;20050;-72
2021/12/06 04:46:33;;;;;;;29.90;14.02;;;;;;;-1.41;90.27;97774.34;2568764;28;21079;-72
2021/12/06 04:47:50;;;;;;;30.95;13.85;;;;;;;-1.44;90.48;97780.31;2568962;28;20058;-73
2021/12/06 04:49:06;;;;;;;28.92;12.80;;;;;;;-1.42;90.52;97777.75;2568676;28;20353;-74
2021/12/06 04:50:28;;;;;;;27.73;13.05;;;;;;;-1.40;90.33;97780.34;2558436;29;20082;-74
2021/12/06 04:51:48;;;;;;;27.45;13.13;;;;;;;-1.40;90.32;97776.06;2563099;28;20616;-74
2021/12/06 04:53:08;;;;;;;26.45;12.00;;;;;;;-1.40;90.44;97777.78;2568841;28;20051;-74
2021/12/06 04:54:29;;;;;;;26.95;12.68;;;;;;;-1.39;90.10;97782.06;2568654;28;20054;-73
2021/12/06 04:55:52;;;;;;;26.33;13.32;;;;;;;-1.41;90.18;97776.91;2568848;28;20051;-74
2021/12/06 04:57:15;;;;;;;25.10;12.70;;;;;;;-1.44;90.28;97782.00;2568536;28;20054;-74
2021/12/06 04:58:41;;;;;;;27.33;12.32;;;;;;;-1.44;90.11;97782.00;2567945;28;20081;-73
2021/12/06 05:00:25;;;;;;;27.10;12.45;;;;;;;-1.46;90.23;97781.16;2568744;28;20051;-71
2021/12/06 05:01:40;;;;;;;26.67;12.05;;;;;;;-1.45;90.12;97777.72;2567544;28;20135;-73
2021/12/06 05:02:57;;;;;;;26.95;12.77;;;;;;;-1.43;90.01;97783.72;2568823;28;20483;-71
2021/12/06 05:04:32;;;;;;;26.67;13.38;;;;;;;-1.42;89.91;97781.19;2568755;28;20513;-72
2021/12/06 05:05:53;;;;;;;27.05;12.55;;;;;;;-1.34;90.00;97783.81;2568921;28;20200;-73
2021/12/06 05:07:19;;;;;;;30.02;13.00;;;;;;;-1.32;90.09;97778.72;2568686;28;20047;-71
2021/12/06 05:08:40;;;;;;;27.65;12.57;;;;;;;-1.33;89.85;97787.25;2568678;28;20138;-72
2021/12/06 05:09:56;;;;;;;25.40;13.02;;;;;;;-1.35;90.05;97781.22;2568863;28;20047;-72
2021/12/06 05:11:12;;;;;;;24.00;12.65;;;;;;;-1.35;89.93;97781.22;2568594;28;20498;-73
2021/12/06 05:12:29;;;;;;;25.38;12.82;;;;;;;-1.38;89.96;97787.22;2568621;28;20051;-72
2021/12/06 05:13:47;;;;;;;21.60;11.70;;;;;;;-1.40;89.73;97791.47;2568613;28;20607;-73
2021/12/06 05:15:06;;;;;;;26.88;11.75;;;;;;;-1.44;89.88;97788.03;2568670;28;20481;-73
2021/12/06 05:16:21;;;;;;;25.35;12.25;;;;;;;-1.45;89.77;97788.88;2568936;28;20122;-73
2021/12/06 05:17:37;;;;;;;28.00;12.93;;;;;;;-1.48;89.68;97787.97;2566688;28;20165;-72
2021/12/06 05:18:53;;;;;;;28.73;13.75;;;;;;;-1.51;89.55;97785.38;2567684;28;20085;-73
2021/12/06 05:20:10;;;;;;;27.08;12.10;;;;;;;-1.52;89.78;97791.38;2567225;28;20462;-72
2021/12/06 05:21:26;;;;;;;26.40;11.65;;;;;;;-1.54;89.82;97786.22;2568370;28;20054;-72
2021/12/06 05:22:41;;;;;;;22.70;11.88;;;;;;;-1.57;89.89;97787.03;2565967;28;20078;-72
2021/12/06 05:23:57;;;;;;;23.33;12.20;;;;;;;-1.59;89.67;97795.59;2568549;28;20810;-72
2021/12/06 05:25:14;;;;;;;23.13;11.55;;;;;;;-1.60;89.73;97791.28;2567892;28;20493;-72
2021/12/06 05:26:30;;;;;;;24.35;12.23;;;;;;;-1.61;89.90;97794.69;2568668;28;20066;-72
2021/12/06 05:27:46;;;;;;;28.80;12.77;;;;;;;-1.63;89.68;97786.09;2568666;28;20051;-73
2021/12/06 05:29:05;;;;;;;26.27;12.25;;;;;;;-1.63;89.84;97792.13;2568248;28;20059;-72
2021/12/06 05:30:22;;;;;;;23.15;11.65;;;;;;;-1.66;90.09;97789.53;2568053;28;20051;-73
2021/12/06 05:31:40;;;;;;;25.15;12.02;;;;;;;-1.63;90.36;97798.94;2568341;28;20047;-73
2021/12/06 05:32:58;;;;;;;30.38;13.32;;;;;;;-1.63;90.26;97799.81;2568330;28;20051;-74
2021/12/06 05:34:18;;;;;;;21.67;12.10;;;;;;;-1.62;90.50;97798.97;2567903;28;20088;-73
2021/12/06 05:35:34;;;;;;;26.90;12.85;;;;;;;-1.61;90.54;97803.25;2567920;28;20599;-73
2021/12/06 05:36:49;;;;;;;29.40;14.13;;;;;;;-1.60;90.72;97807.53;2568061;28;20074;-73
2021/12/06 05:38:05;;;;;;;24.27;12.23;;;;;;;-1.56;90.59;97811.84;2567776;28;20078;-72
2021/12/06 05:39:30;;;;;;;26.80;12.30;;;;;;;-1.53;90.58;97807.63;2556495;29;20082;-73
2021/12/06 05:40:47;;;;;;;30.38;12.88;;;;;;;-1.50;90.76;97810.22;2562329;28;20055;-72
2021/12/06 05:42:06;;;;;;;28.48;13.55;;;;;;;-1.49;90.46;97805.06;2568141;28;20432;-72
2021/12/06 05:43:23;;;;;;;24.38;12.63;;;;;;;-1.46;90.58;97802.56;2568191;28;20047;-73
2021/12/06 05:44:39;;;;;;;29.17;13.40;;;;;;;-1.41;90.21;97812.84;2567655;28;20051;-72
2021/12/06 05:45:55;;;;;;;24.80;12.95;;;;;;;-1.38;90.26;97810.34;2568330;28;20125;-72
2021/12/06 05:47:10;;;;;;;28.35;14.25;;;;;;;-1.40;90.17;97812.00;2567814;28;20101;-72
2021/12/06 05:48:27;;;;;;;29.50;13.60;;;;;;;-1.42;90.01;97812.00;2568208;28;20098;-73
2021/12/06 05:49:44;;;;;;;31.88;14.63;;;;;;;-1.43;90.11;97807.72;2567977;28;20055;-72
2021/12/06 05:50:59;;;;;;;30.88;14.68;;;;;;;-1.44;90.29;97811.13;2567807;28;20101;-72
2021/12/06 05:52:16;;;;;;;29.33;14.75;;;;;;;-1.42;90.46;97818.84;2568409;28;20050;-72
2021/12/06 05:53:31;;;;;;;38.20;14.38;;;;;;;-1.42;90.21;97816.25;2568365;28;20043;-72
2021/12/06 05:54:47;;;;;;;29.65;14.38;;;;;;;-1.36;89.97;97820.59;2567931;28;20057;-72
2021/12/06 05:56:03;;;;;;;32.55;14.70;;;;;;;-1.35;90.16;97824.88;2568479;28;20086;-73
2021/12/06 05:57:20;;;;;;;26.80;13.60;;;;;;;-1.37;90.18;97822.31;2568231;28;20486;-73
2021/12/06 05:58:36;;;;;;;34.20;14.98;;;;;;;-1.37;90.01;97824.03;2568366;28;20102;-72
2021/12/06 05:59:52;;;;;;;32.40;14.85;;;;;;;-1.39;90.22;97831.72;2568099;28;20097;-72
2021/12/06 06:01:09;;;;;;;35.00;14.35;;;;;;;-1.39;90.09;97828.28;2567691;28;20054;-72
2021/12/06 06:02:25;;;;;;;30.25;14.13;;;;;;;-1.40;90.28;97829.97;2567888;28;20050;-73
2021/12/06 06:03:41;;;;;;;32.55;14.80;;;;;;;-1.42;90.21;97829.09;2567742;28;20094;-72
2021/12/06 06:04:56;;;;;;;30.80;13.85;;;;;;;-1.44;90.17;97836.81;2567874;28;20082;-72
2021/12/06 06:06:12;;;;;;;28.63;13.65;;;;;;;-1.46;90.06;97835.94;2568461;28;20054;-72
2021/12/06 06:07:28;;;;;;;28.85;13.63;;;;;;;-1.50;90.04;97838.44;2568391;28;20054;-72
2021/12/06 06:08:43;;;;;;;27.45;12.77;;;;;;;-1.51;89.96;97834.16;2568076;28;20093;-72